Time;durP1;ratioP1;P1;durP2;ratioP2;P2;SDS_P1;SDS_P2;PMS_P1;PMS_P2;Temp;Humidity;BMP_temperature;BMP_pressure;BME280_temperature;BME280_humidity;BME280_pressure;Samples;Min_cycle;Max_cycle;Signal;HPM_P1;HPM_P2
2023/10/21 00:00:44;;;;;;;18.60;5.40;;;;;;;19.13;57.42;99302.80;124982;1099;104050;-77
2023/10/21 00:03:32;;;;;;;15.73;5.33;;;;;;;19.10;58.04;99303.72;125038;1099;104326;-77
2023/10/21 00:06:04;;;;;;;13.30;5.37;;;;;;;19.10;57.33;99300.19;125022;1099;104308;-79
2023/10/21 00:08:35;;;;;;;14.60;5.20;;;;;;;19.07;57.86;99295.80;124557;1099;104262;-76
2023/10/21 00:11:12;;;;;;;13.80;5.20;;;;;;;19.05;57.41;99286.98;124973;1099;104245;-76
2023/10/21 00:13:43;;;;;;;17.60;5.63;;;;;;;19.04;57.95;99288.77;124932;1099;104463;-77
2023/10/21 00:16:16;;;;;;;14.63;5.60;;;;;;;19.03;57.56;99294.13;125065;1098;104270;-76
2023/10/21 00:18:47;;;;;;;16.53;5.77;;;;;;;19.01;57.45;99287.94;124941;1099;104377;-76
2023/10/21 00:21:19;;;;;;;14.83;5.23;;;;;;;18.99;57.70;99298.59;124934;1099;104258;-76
2023/10/21 00:23:50;;;;;;;16.73;5.27;;;;;;;18.96;57.52;99309.28;124869;1099;101964;-77
2023/10/21 00:26:22;;;;;;;13.30;4.80;;;;;;;18.96;57.71;99298.64;124963;1099;101964;-77
2023/10/21 00:28:57;;;;;;;14.83;4.80;;;;;;;19.01;57.84;99309.20;124863;1099;104212;-77
2023/10/21 00:31:28;;;;;;;18.30;4.63;;;;;;;19.07;57.52;99313.54;124743;1099;104230;-77
2023/10/21 00:34:00;;;;;;;16.03;5.00;;;;;;;19.11;57.16;99316.12;125569;1098;104245;-77
2023/10/21 00:36:31;;;;;;;15.83;4.87;;;;;;;19.15;57.43;99312.51;124769;1099;104182;-76
2023/10/21 00:39:02;;;;;;;13.33;5.10;;;;;;;19.17;56.83;99323.98;124803;1099;101913;-76
2023/10/21 00:41:36;;;;;;;15.73;5.40;;;;;;;19.19;57.23;99334.59;124787;1099;101836;-76
2023/10/21 00:44:08;;;;;;;15.77;5.23;;;;;;;19.20;57.62;99325.72;124789;1098;104265;-77
2023/10/21 00:46:40;;;;;;;13.17;4.37;;;;;;;19.20;57.31;99325.72;124822;1099;101791;-77
2023/10/21 00:49:13;;;;;;;13.93;4.67;;;;;;;19.22;57.35;99327.42;124758;1099;104165;-77
2023/10/21 00:51:46;;;;;;;14.18;4.90;;;;;;;19.27;57.36;99319.36;124722;1099;104207;-76
2023/10/21 00:54:18;;;;;;;13.47;4.47;;;;;;;19.30;56.63;99323.77;124809;1098;104282;-76
2023/10/21 00:56:50;;;;;;;18.03;4.90;;;;;;;19.30;56.71;99326.42;124744;1099;102860;-76
2023/10/21 00:59:21;;;;;;;13.07;4.33;;;;;;;19.30;57.12;99327.28;124800;1098;104242;-76
2023/10/21 01:01:53;;;;;;;21.93;4.70;;;;;;;19.30;57.00;99340.58;124279;1099;104179;-77
2023/10/21 01:04:25;;;;;;;12.37;4.60;;;;;;;19.31;57.05;99328.19;124297;1099;104725;-77
2023/10/21 01:06:57;;;;;;;17.63;5.03;;;;;;;19.31;56.45;99325.52;124301;1099;101865;-76
2023/10/21 01:09:30;;;;;;;15.63;5.03;;;;;;;19.30;56.73;99331.73;124804;1099;101923;-76
2023/10/21 01:12:01;;;;;;;14.03;5.10;;;;;;;19.27;56.72;99326.47;124280;1099;104172;-76
2023/10/21 01:14:32;;;;;;;13.73;4.70;;;;;;;19.25;56.18;99323.84;124890;1099;104201;-76
2023/10/21 01:17:04;;;;;;;13.37;4.90;;;;;;;19.27;56.87;99326.47;124300;1099;104086;-76
2023/10/21 01:19:35;;;;;;;16.63;5.00;;;;;;;19.26;56.22;99328.27;124810;1099;104182;-76
2023/10/21 01:22:07;;;;;;;14.40;5.20;;;;;;;19.25;56.50;99329.16;124763;1099;104277;-76
2023/10/21 01:24:38;;;;;;;16.00;4.80;;;;;;;19.24;56.00;99339.83;125124;1099;101878;-76
2023/10/21 01:27:10;;;;;;;16.73;4.80;;;;;;;19.22;56.72;99331.88;124746;1099;104169;-76
2023/10/21 01:29:41;;;;;;;17.57;5.07;;;;;;;19.21;56.02;99341.65;124870;1099;104355;-76
2023/10/21 01:32:12;;;;;;;10.53;4.60;;;;;;;19.21;56.58;99348.73;124881;1099;104201;-76
2023/10/21 01:34:44;;;;;;;17.47;4.70;;;;;;;19.21;56.16;99351.39;124788;1099;104280;-76
2023/10/21 01:37:15;;;;;;;13.70;5.07;;;;;;;19.17;56.83;99363.87;124491;1099;104239;-76
2023/10/21 01:39:47;;;;;;;16.40;5.30;;;;;;;19.13;56.45;99367.48;124554;1099;104307;-76
2023/10/21 01:42:21;;;;;;;15.53;5.20;;;;;;;19.08;56.43;99363.16;125090;1099;104463;-76
2023/10/21 01:44:55;;;;;;;18.20;5.87;;;;;;;19.01;55.77;99360.61;125078;1099;104273;-77
2023/10/21 01:47:26;;;;;;;15.03;5.40;;;;;;;18.95;56.70;99362.50;125076;1098;101923;-76
2023/10/21 01:49:58;;;;;;;15.20;5.17;;;;;;;18.89;56.38;99367.91;124980;1099;101991;-77
2023/10/21 01:52:30;;;;;;;15.43;5.30;;;;;;;18.81;56.72;99366.22;125099;1099;104292;-76
2023/10/21 01:55:03;;;;;;;18.53;5.73;;;;;;;18.74;56.60;99363.67;124958;1099;104236;-77
2023/10/21 01:57:34;;;;;;;13.88;5.28;;;;;;;18.66;56.27;99362.00;124537;1099;104239;-77
2023/10/21 02:00:10;;;;;;;15.83;5.37;;;;;;;18.59;56.62;99370.09;125022;1099;102376;-76
2023/10/21 02:02:51;;;;;;;18.10;5.50;;;;;;;18.49;56.85;99372.88;124991;1099;104246;-77
2023/10/21 02:05:24;;;;;;;16.43;5.10;;;;;;;18.42;56.83;99378.34;124892;1099;104233;-76
2023/10/21 02:07:55;;;;;;;13.03;5.17;;;;;;;18.35;57.20;99377.52;125019;1099;101977;-76
2023/10/21 02:10:27;;;;;;;20.27;5.70;;;;;;;18.28;57.03;99379.39;125078;1099;104265;-77
2023/10/21 02:12:58;;;;;;;18.53;5.37;;;;;;;18.24;57.19;99380.33;124997;1099;104195;-76
2023/10/21 02:15:29;;;;;;;17.70;5.60;;;;;;;18.18;57.43;99377.75;124995;1099;102183;-78
2023/10/21 02:18:00;;;;;;;13.87;5.20;;;;;;;18.11;57.27;99389.37;124858;1099;104169;-77
2023/10/21 02:20:32;;;;;;;16.13;5.87;;;;;;;18.04;57.75;99391.20;124992;1099;104101;-76
2023/10/21 02:23:04;;;;;;;17.20;5.73;;;;;;;17.95;57.51;99393.96;124482;1099;104265;-77
2023/10/21 02:25:35;;;;;;;15.87;5.63;;;;;;;17.91;57.96;99401.09;124952;1099;101865;-76
2023/10/21 02:28:07;;;;;;;15.23;5.70;;;;;;;17.86;57.72;99394.94;124958;1099;104232;-76
2023/10/21 02:30:39;;;;;;;17.30;6.07;;;;;;;17.84;57.75;99387.88;124892;1098;104204;-76
2023/10/21 02:33:11;;;;;;;14.47;5.93;;;;;;;17.77;57.83;99395.91;124456;1099;104188;-76
2023/10/21 02:35:42;;;;;;;17.10;6.00;;;;;;;17.72;57.92;99397.75;124982;1099;104252;-76
2023/10/21 02:38:13;;;;;;;17.50;5.73;;;;;;;17.68;58.00;99397.80;124851;1099;104172;-76
2023/10/21 02:40:45;;;;;;;17.13;6.37;;;;;;;17.64;58.06;99396.06;124921;1099;104269;-76
2023/10/21 02:43:16;;;;;;;18.57;6.50;;;;;;;17.56;58.44;99397.04;125017;1099;102150;-76
2023/10/21 02:45:49;;;;;;;20.60;6.30;;;;;;;17.51;58.43;99401.48;125095;1099;102064;-76
2023/10/21 02:48:20;;;;;;;17.90;5.90;;;;;;;17.48;58.65;99401.52;125027;1099;102048;-77
2023/10/21 02:50:52;;;;;;;16.47;5.83;;;;;;;17.46;58.82;99403.32;124973;1099;104306;-76
2023/10/21 02:53:23;;;;;;;17.17;6.13;;;;;;;17.42;58.65;99407.78;125031;1098;104173;-76
2023/10/21 02:55:54;;;;;;;13.80;5.53;;;;;;;17.40;58.98;99406.03;124951;1099;104195;-76
2023/10/21 02:58:25;;;;;;;18.63;5.60;;;;;;;17.35;58.93;99407.86;124881;1099;101928;-76
2023/10/21 03:00:57;;;;;;;19.30;6.00;;;;;;;17.34;59.30;99412.29;125028;1099;104233;-76
2023/10/21 03:03:28;;;;;;;16.35;5.70;;;;;;;17.31;58.81;99403.46;125015;1099;102044;-76
2023/10/21 03:06:01;;;;;;;18.97;6.37;;;;;;;17.28;59.23;99408.80;125006;1099;105443;-76
2023/10/21 03:08:33;;;;;;;18.37;5.92;;;;;;;17.23;59.34;99398.23;125111;1099;104645;-76
2023/10/21 03:11:05;;;;;;;15.97;5.97;;;;;;;17.20;59.66;99412.41;124896;1099;104251;-77
2023/10/21 03:13:37;;;;;;;20.57;6.27;;;;;;;17.15;59.60;99406.25;124472;1102;102384;-76
2023/10/21 03:16:11;;;;;;;18.97;5.67;;;;;;;17.12;59.48;99406.27;124997;1099;104197;-76
2023/10/21 03:18:45;;;;;;;19.65;5.30;;;;;;;17.13;59.52;99409.83;124829;1099;104221;-76
2023/10/21 03:21:18;;;;;;;16.60;5.57;;;;;;;17.13;59.92;99417.78;124852;1097;104169;-76
2023/10/21 03:23:50;;;;;;;20.93;6.70;;;;;;;17.13;59.90;99410.70;124828;1099;101980;-77
2023/10/21 03:26:21;;;;;;;18.80;5.20;;;;;;;17.13;59.73;99412.48;124926;1099;101938;-77
2023/10/21 03:28:53;;;;;;;17.37;5.63;;;;;;;17.15;59.82;99410.68;124873;1099;102028;-76
2023/10/21 03:31:24;;;;;;;16.80;5.20;;;;;;;17.15;60.24;99406.25;124872;1099;104169;-76
2023/10/21 03:33:55;;;;;;;20.70;6.97;;;;;;;17.17;59.93;99415.09;124908;1098;101943;-76
2023/10/21 03:36:27;;;;;;;19.73;6.00;;;;;;;17.16;60.39;99420.41;124899;1098;104172;-76
2023/10/21 03:38:58;;;;;;;18.83;7.00;;;;;;;17.12;60.71;99416.88;124935;1099;101952;-76
2023/10/21 03:41:30;;;;;;;18.73;6.67;;;;;;;17.09;60.41;99416.90;124924;1099;102029;-76
2023/10/21 03:44:03;;;;;;;17.77;6.30;;;;;;;17.07;60.58;99413.39;125004;1098;104200;-76
2023/10/21 03:46:35;;;;;;;19.45;6.62;;;;;;;17.03;61.10;99411.65;124928;1099;104322;-76
2023/10/21 03:49:09;;;;;;;18.23;7.03;;;;;;;17.00;60.85;99428.47;124986;1099;104172;-76
2023/10/21 03:51:40;;;;;;;19.13;5.77;;;;;;;16.97;60.95;99430.24;125006;1099;101836;-76
2023/10/21 03:54:11;;;;;;;14.37;6.00;;;;;;;16.92;61.24;99430.28;124915;1098;104191;-76
2023/10/21 03:56:42;;;;;;;16.87;6.10;;;;;;;16.84;60.97;99435.63;124957;1099;101854;-77
2023/10/21 03:59:14;;;;;;;15.95;6.05;;;;;;;16.82;61.05;99444.47;125017;1099;104239;-76
2023/10/21 04:01:45;;;;;;;16.57;6.10;;;;;;;16.81;61.16;99435.65;125035;1098;104316;-76
2023/10/21 04:04:17;;;;;;;22.73;6.10;;;;;;;16.83;61.40;99443.59;125036;1099;101936;-76
2023/10/21 04:06:48;;;;;;;17.77;6.67;;;;;;;16.80;61.71;99441.83;125015;1099;104163;-76
2023/10/21 04:09:19;;;;;;;18.63;7.00;;;;;;;16.78;61.57;99434.77;125125;1099;104187;-76
2023/10/21 04:11:51;;;;;;;23.17;6.20;;;;;;;16.77;61.91;99440.98;125043;1099;104326;-77
2023/10/21 04:14:22;;;;;;;20.10;6.23;;;;;;;16.76;61.32;99447.16;126208;1098;102016;-77
2023/10/21 04:16:53;;;;;;;17.87;6.43;;;;;;;16.76;61.85;99440.08;125112;1099;104166;-76
2023/10/21 04:19:25;;;;;;;20.27;7.07;;;;;;;16.76;62.08;99445.37;125116;1099;104194;-76
2023/10/21 04:21:56;;;;;;;17.70;6.33;;;;;;;16.72;62.18;99448.95;125073;1099;104189;-76
2023/10/21 04:24:28;;;;;;;16.10;6.80;;;;;;;16.71;61.65;99452.48;125080;1099;104283;-76
2023/10/21 04:26:59;;;;;;;16.70;6.17;;;;;;;16.70;61.61;99458.66;125053;1098;102211;-77
2023/10/21 04:29:30;;;;;;;16.93;6.33;;;;;;;16.69;62.04;99459.56;125242;1099;104808;-76
2023/10/21 04:32:01;;;;;;;20.83;7.07;;;;;;;16.69;61.73;99465.73;125089;1099;104169;-76
2023/10/21 04:34:33;;;;;;;16.30;6.13;;;;;;;16.66;61.71;99475.47;125181;1099;104156;-76
2023/10/21 04:37:04;;;;;;;18.33;6.27;;;;;;;16.65;61.65;99471.05;125113;1099;101929;-76
2023/10/21 04:39:36;;;;;;;19.80;6.60;;;;;;;16.64;62.11;99469.28;125016;1099;104229;-77
2023/10/21 04:42:09;;;;;;;19.77;6.53;;;;;;;16.63;62.36;99486.08;125100;1099;104243;-76
2023/10/21 04:44:40;;;;;;;20.00;6.87;;;;;;;16.60;62.43;99488.75;124994;1099;104235;-78
2023/10/21 04:47:15;;;;;;;15.17;6.73;;;;;;;16.59;62.23;99485.20;125156;1099;101871;-76
2023/10/21 04:49:47;;;;;;;21.67;7.20;;;;;;;16.62;62.28;99489.61;125024;1099;104163;-77
2023/10/21 04:52:19;;;;;;;20.73;6.73;;;;;;;16.63;62.57;99491.37;125047;1098;102138;-76
2023/10/21 04:54:50;;;;;;;15.67;6.53;;;;;;;16.62;62.19;99501.07;125006;1099;104235;-76
2023/10/21 04:57:21;;;;;;;18.50;7.10;;;;;;;16.65;62.61;99506.36;124964;1099;102080;-77
2023/10/21 04:59:52;;;;;;;17.77;7.43;;;;;;;16.66;62.58;99508.13;125401;1099;104159;-76
2023/10/21 05:02:24;;;;;;;17.70;7.00;;;;;;;16.67;62.36;99511.64;125197;1099;104250;-76
2023/10/21 05:04:55;;;;;;;20.27;6.80;;;;;;;16.68;62.43;99516.06;125143;1099;104169;-77
2023/10/21 05:07:26;;;;;;;20.50;7.43;;;;;;;16.68;62.67;99516.94;125248;1099;101868;-77
2023/10/21 05:09:58;;;;;;;19.87;6.87;;;;;;;16.68;62.84;99524.01;125243;1099;101906;-77
2023/10/21 05:12:29;;;;;;;19.80;7.50;;;;;;;16.69;63.10;99521.36;125191;1099;102316;-77
2023/10/21 05:15:00;;;;;;;23.93;7.77;;;;;;;16.71;62.89;99526.64;125270;1099;104214;-78
2023/10/21 05:17:31;;;;;;;27.43;8.00;;;;;;;16.74;62.87;99528.41;125291;1099;101935;-76
2023/10/21 05:20:03;;;;;;;25.53;8.10;;;;;;;16.74;63.22;99531.92;125001;1099;104271;-76
2023/10/21 05:22:34;;;;;;;58.57;11.33;;;;;;;16.70;62.98;99538.12;125020;1099;104169;-76
2023/10/21 05:25:07;;;;;;;41.93;9.33;;;;;;;16.68;63.28;99537.25;125237;1099;102319;-77
2023/10/21 05:27:38;;;;;;;41.10;9.67;;;;;;;16.69;62.96;99544.33;125346;1099;104169;-78
2023/10/21 05:30:13;;;;;;;39.93;9.27;;;;;;;16.75;63.47;99543.39;125264;1099;107052;-80
2023/10/21 05:32:44;;;;;;;30.87;8.67;;;;;;;16.79;63.10;99548.67;125306;1099;104268;-77
2023/10/21 05:35:17;;;;;;;33.30;8.30;;;;;;;16.84;63.37;99540.70;125035;1099;104245;-76
2023/10/21 05:37:48;;;;;;;25.80;8.13;;;;;;;16.89;63.51;99544.23;124822;1099;101871;-76
2023/10/21 05:40:19;;;;;;;42.77;9.43;;;;;;;16.95;63.46;99551.28;124841;1099;102016;-76
2023/10/21 05:42:51;;;;;;;36.27;10.80;;;;;;;16.99;63.47;99548.60;124820;1099;102600;-78
2023/10/21 05:45:23;;;;;;;39.90;9.60;;;;;;;17.04;63.87;99549.45;125949;1098;104166;-76
2023/10/21 05:47:55;;;;;;;33.63;9.57;;;;;;;17.10;63.84;99558.27;124814;1099;104220;-76
2023/10/21 05:50:26;;;;;;;38.50;9.97;;;;;;;17.15;63.73;99554.69;124881;1099;104238;-76
2023/10/21 05:52:58;;;;;;;33.93;9.37;;;;;;;17.21;63.81;99561.73;124970;1099;101923;-77
2023/10/21 05:55:29;;;;;;;26.27;8.87;;;;;;;17.26;63.92;99567.88;124907;1099;104306;-76
2023/10/21 05:58:01;;;;;;;33.40;8.97;;;;;;;17.29;63.71;99562.55;124749;1099;104051;-75
2023/10/21 06:00:32;;;;;;;30.33;9.27;;;;;;;17.35;63.74;99565.16;124633;1099;104243;-75
2023/10/21 06:03:05;;;;;;;30.47;8.47;;;;;;;17.40;64.14;99565.13;124765;1099;101926;-75
2023/10/21 06:05:36;;;;;;;24.07;7.93;;;;;;;17.48;63.94;99568.59;125866;1098;104223;-75
2023/10/21 06:08:09;;;;;;;30.17;8.00;;;;;;;17.54;64.15;99570.34;124401;1099;101866;-76
2023/10/21 06:10:44;;;;;;;24.13;7.90;;;;;;;17.64;64.37;99571.13;124687;1098;104159;-75
2023/10/21 06:13:15;;;;;;;26.77;8.27;;;;;;;17.70;64.55;99565.78;124656;1098;104284;-76
2023/10/21 06:15:48;;;;;;;29.47;8.77;;;;;;;17.78;64.15;99577.23;124732;1099;102013;-75
2023/10/21 06:18:19;;;;;;;32.47;9.13;;;;;;;17.87;64.32;99569.20;124852;1099;104303;-76
2023/10/21 06:20:53;;;;;;;32.90;9.00;;;;;;;17.96;64.20;99569.11;124770;1099;101932;-76
2023/10/21 06:23:25;;;;;;;35.67;9.37;;;;;;;18.06;64.22;99564.62;124656;1099;104299;-74
2023/10/21 06:25:56;;;;;;;33.97;9.33;;;;;;;18.17;64.35;99567.17;124803;1099;104233;-75
2023/10/21 06:28:29;;;;;;;28.23;8.83;;;;;;;18.28;64.60;99562.61;124760;1099;104163;-75
2023/10/21 06:31:04;;;;;;;28.37;8.90;;;;;;;18.39;64.33;99559.84;124845;1099;104262;-75
2023/10/21 06:33:36;;;;;;;34.50;9.37;;;;;;;18.50;64.45;99568.56;124807;1099;102080;-75
2023/10/21 06:36:08;;;;;;;35.50;9.47;;;;;;;18.61;64.15;99568.44;124757;1099;104297;-75
2023/10/21 06:38:40;;;;;;;29.27;8.93;;;;;;;18.74;64.59;99571.81;124690;1099;101815;-74
2023/10/21 06:41:11;;;;;;;32.40;10.43;;;;;;;18.86;64.42;99570.83;124853;1099;101839;-75
2023/10/21 06:43:43;;;;;;;25.57;9.53;;;;;;;19.00;64.07;99574.17;124621;1099;102375;-75
2023/10/21 06:46:14;;;;;;;32.50;10.50;;;;;;;19.14;63.78;99573.98;124589;1099;104284;-75
2023/10/21 06:48:45;;;;;;;28.37;8.90;;;;;;;19.29;64.65;99579.97;124706;1099;102975;-74
2023/10/21 06:51:18;;;;;;;28.07;9.40;;;;;;;19.43;63.66;99587.75;124571;1099;101823;-75
2023/10/21 06:53:49;;;;;;;24.90;9.70;;;;;;;19.56;63.99;99578.69;124816;1099;101839;-75
2023/10/21 06:56:20;;;;;;;26.73;9.90;;;;;;;19.69;63.51;99582.89;124738;1099;103809;-75
2023/10/21 06:58:52;;;;;;;28.77;9.20;;;;;;;19.83;63.43;99587.16;124722;1098;104150;-75
2023/10/21 07:01:23;;;;;;;27.70;9.70;;;;;;;19.95;63.95;99591.41;124777;1099;104242;-75
2023/10/21 07:03:55;;;;;;;24.67;8.70;;;;;;;20.04;63.19;99584.13;124597;1099;103792;-75
2023/10/21 07:06:26;;;;;;;27.43;8.30;;;;;;;20.14;63.57;99586.62;124636;1099;104173;-75
2023/10/21 07:08:59;;;;;;;26.93;8.93;;;;;;;20.22;63.54;99584.69;124765;1099;104242;-76
2023/10/21 07:11:30;;;;;;;34.90;10.50;;;;;;;20.32;62.38;99591.63;126134;1098;104510;-77
2023/10/21 07:14:02;;;;;;;25.00;9.10;;;;;;;20.41;62.87;99596.78;125049;1099;104172;-77
2023/10/21 07:16:33;;;;;;;29.50;10.10;;;;;;;20.50;62.73;99595.70;124735;1098;102020;-75
2023/10/21 07:19:04;;;;;;;32.13;9.63;;;;;;;20.61;62.23;99593.70;124749;1099;104235;-74
2023/10/21 07:21:37;;;;;;;28.67;9.87;;;;;;;20.72;62.60;99593.52;124552;1099;104334;-74
2023/10/21 07:24:11;;;;;;;31.83;9.57;;;;;;;20.81;62.01;99595.99;124200;1099;101829;-75
2023/10/21 07:26:43;;;;;;;24.27;8.17;;;;;;;20.91;62.36;99596.70;124773;1099;102041;-75
2023/10/21 07:29:14;;;;;;;22.80;7.47;;;;;;;21.03;61.15;99597.34;124565;1098;104248;-75
2023/10/21 07:31:45;;;;;;;21.20;7.10;;;;;;;21.13;61.45;99596.21;124538;1099;104166;-76
2023/10/21 07:34:16;;;;;;;18.67;6.40;;;;;;;21.24;60.96;99601.31;124564;1099;104242;-75
2023/10/21 07:36:47;;;;;;;18.40;6.33;;;;;;;21.36;61.37;99601.03;124598;1099;104057;-77
2023/10/21 07:39:19;;;;;;;19.07;6.30;;;;;;;21.48;60.70;99614.09;124946;1099;104312;-77
2023/10/21 07:41:51;;;;;;;17.23;6.23;;;;;;;21.65;60.28;99610.20;124900;1099;102208;-75
2023/10/21 07:44:28;;;;;;;18.07;5.57;;;;;;;21.76;59.89;99605.47;124600;1099;104322;-77
2023/10/21 07:46:59;;;;;;;20.67;6.07;;;;;;;21.89;59.52;99608.70;124384;1099;101939;-76
2023/10/21 07:49:30;;;;;;;20.93;5.97;;;;;;;22.02;58.84;99614.64;124278;1099;104303;-76
2023/10/21 07:52:03;;;;;;;21.10;7.05;;;;;;;22.15;58.75;99600.03;124575;1099;101855;-76
2023/10/21 07:54:34;;;;;;;19.83;6.20;;;;;;;22.30;59.11;99603.20;124941;1099;103426;-76
2023/10/21 07:57:06;;;;;;;19.53;5.70;;;;;;;22.45;58.15;99605.50;124412;1099;101836;-77
2023/10/21 07:59:37;;;;;;;13.53;5.23;;;;;;;22.64;57.78;99618.36;124420;1099;104317;-77
2023/10/21 08:02:09;;;;;;;23.40;5.60;;;;;;;22.81;57.13;99610.73;124763;1099;104495;-77
2023/10/21 08:04:41;;;;;;;20.30;6.20;;;;;;;23.00;57.03;99618.22;124626;1099;104270;-75
2023/10/21 08:07:12;;;;;;;19.53;6.07;;;;;;;23.16;56.99;99616.89;124534;1099;104245;-75
2023/10/21 08:09:44;;;;;;;19.10;5.63;;;;;;;23.30;56.42;99616.47;124572;1099;104169;-75
2023/10/21 08:12:16;;;;;;;20.60;5.90;;;;;;;23.44;55.85;99624.08;124622;1099;104341;-74
2023/10/21 08:14:50;;;;;;;17.97;6.03;;;;;;;23.59;55.51;99618.23;124668;1099;102506;-76
2023/10/21 08:17:22;;;;;;;24.00;5.57;;;;;;;23.74;55.12;99624.02;124679;1099;101859;-77
2023/10/21 08:19:53;;;;;;;23.67;6.03;;;;;;;23.87;54.89;99622.70;124710;1098;101974;-77
2023/10/21 08:22:24;;;;;;;20.60;5.87;;;;;;;24.01;54.49;99623.14;124771;1099;104242;-77
2023/10/21 08:24:56;;;;;;;20.23;6.17;;;;;;;24.14;54.11;99622.73;124736;1099;104262;-76
2023/10/21 08:27:28;;;;;;;27.80;6.77;;;;;;;24.29;53.91;99630.21;124619;1099;104370;-77
2023/10/21 08:29:59;;;;;;;20.47;6.37;;;;;;;24.43;53.25;99623.50;124517;1099;104185;-77
2023/10/21 08:32:31;;;;;;;21.17;6.30;;;;;;;24.55;53.13;99626.62;124584;1098;104242;-77
2023/10/21 08:35:03;;;;;;;21.07;6.27;;;;;;;24.69;53.20;99623.47;124589;1098;104194;-75
2023/10/21 08:37:34;;;;;;;21.13;6.83;;;;;;;24.82;52.77;99623.89;124572;1099;101955;-75
2023/10/21 08:40:10;;;;;;;22.77;6.30;;;;;;;24.92;52.22;99619.94;124544;1099;104240;-76
2023/10/21 08:42:43;;;;;;;20.40;6.23;;;;;;;25.06;52.21;99619.42;124530;1099;104191;-75
2023/10/21 08:45:18;;;;;;;23.42;6.62;;;;;;;25.21;51.49;99627.81;124556;1099;104246;-75
2023/10/21 08:47:52;;;;;;;16.17;6.43;;;;;;;25.37;51.26;99631.70;124658;1099;104264;-75
2023/10/21 08:50:24;;;;;;;23.10;7.50;;;;;;;25.50;51.00;99637.45;124628;1099;101858;-76
2023/10/21 08:52:56;;;;;;;24.57;8.53;;;;;;;25.65;50.22;99638.66;124610;1099;104169;-76
2023/10/21 08:55:28;;;;;;;21.85;7.75;;;;;;;25.80;50.04;99637.15;124673;1099;102118;-77
2023/10/21 08:57:59;;;;;;;24.40;7.30;;;;;;;25.92;49.46;99641.16;124666;1099;104220;-77
2023/10/21 09:00:30;;;;;;;20.23;6.80;;;;;;;26.04;49.38;99637.99;124653;1099;104264;-77
2023/10/21 09:03:03;;;;;;;21.13;5.90;;;;;;;26.14;49.07;99642.02;124788;1098;104313;-76
2023/10/21 09:05:36;;;;;;;15.70;5.53;;;;;;;26.23;47.91;99646.14;124516;1099;104175;-75
2023/10/21 09:08:08;;;;;;;15.25;5.15;;;;;;;26.37;47.83;99637.48;124611;1099;104235;-75
2023/10/21 09:10:39;;;;;;;16.93;5.60;;;;;;;26.47;47.35;99633.44;124591;1099;103554;-75
2023/10/21 09:13:16;;;;;;;22.27;5.27;;;;;;;26.59;46.70;99628.48;124693;1099;104370;-75
2023/10/21 09:15:47;;;;;;;19.73;5.10;;;;;;;26.70;46.55;99639.66;124666;1099;104230;-74
2023/10/21 09:18:19;;;;;;;17.27;5.87;;;;;;;26.81;46.01;99631.11;124585;1099;104236;-75
2023/10/21 09:20:51;;;;;;;20.97;5.40;;;;;;;26.92;45.86;99627.93;124581;1099;104274;-76
2023/10/21 09:23:23;;;;;;;14.97;4.57;;;;;;;27.03;45.55;99633.69;124569;1097;101816;-76
2023/10/21 09:25:55;;;;;;;22.87;5.60;;;;;;;27.12;45.23;99630.57;124578;1099;101858;-76
2023/10/21 09:28:27;;;;;;;17.70;5.50;;;;;;;27.22;44.69;99629.20;125609;1098;104166;-76
2023/10/21 09:31:02;;;;;;;17.43;5.37;;;;;;;27.33;44.45;99633.22;124581;1099;104242;-76
2023/10/21 09:33:53;;;;;;;22.43;5.53;;;;;;;27.41;43.62;99634.62;124751;1099;104198;-75
2023/10/21 09:36:25;;;;;;;19.80;5.97;;;;;;;27.50;44.01;99625.20;124570;1099;104169;-76
2023/10/21 09:38:56;;;;;;;22.23;6.57;;;;;;;27.57;43.51;99625.80;124564;1099;102015;-75
2023/10/21 09:41:29;;;;;;;17.30;5.57;;;;;;;27.63;42.89;99622.80;124649;1099;102199;-76
2023/10/21 09:44:03;;;;;;;19.83;5.77;;;;;;;27.68;43.10;99617.20;124684;1099;104344;-75
2023/10/21 09:46:37;;;;;;;23.77;6.93;;;;;;;27.77;43.13;99616.73;124168;1099;104411;-74
2023/10/21 09:49:09;;;;;;;22.70;6.50;;;;;;;27.81;42.29;99618.31;124653;1099;101830;-75
2023/10/21 09:51:53;;;;;;;19.67;5.77;;;;;;;27.87;42.43;99617.14;124522;1098;104204;-77
2023/10/21 09:54:32;;;;;;;24.33;6.53;;;;;;;27.95;41.89;99626.61;124154;1099;104323;-76
2023/10/21 09:57:06;;;;;;;17.57;6.00;;;;;;;28.02;41.74;99620.91;124260;1099;104278;-75
2023/10/21 09:59:38;;;;;;;18.47;5.67;;;;;;;28.08;41.45;99623.30;124165;1099;104325;-75
2023/10/21 10:02:11;;;;;;;19.00;6.20;;;;;;;28.14;40.97;99622.98;124447;1099;104268;-76
2023/10/21 10:04:43;;;;;;;20.17;5.40;;;;;;;28.21;40.81;99616.34;124609;1099;104197;-75
2023/10/21 10:07:17;;;;;;;16.17;6.07;;;;;;;28.26;40.92;99614.27;124154;1099;104162;-76
2023/10/21 10:09:51;;;;;;;21.43;5.80;;;;;;;28.31;40.19;99616.72;124650;1099;104623;-76
2023/10/21 10:12:27;;;;;;;17.70;5.53;;;;;;;28.38;40.12;99611.91;124591;1099;102309;-76
2023/10/21 10:14:58;;;;;;;22.33;6.57;;;;;;;28.44;39.99;99612.45;124581;1099;104220;-76
2023/10/21 10:17:49;;;;;;;19.60;5.80;;;;;;;28.47;40.07;99608.69;124567;1096;104201;-76
2023/10/21 10:20:24;;;;;;;18.70;5.70;;;;;;;28.52;39.41;99612.05;124126;1099;104185;-76
2023/10/21 10:23:01;;;;;;;17.53;5.30;;;;;;;28.57;38.88;99612.66;124122;1099;104309;-76
2023/10/21 10:25:38;;;;;;;19.37;4.73;;;;;;;28.61;38.66;99614.30;124605;1099;104066;-77
2023/10/21 10:28:11;;;;;;;16.90;4.70;;;;;;;28.65;38.66;99609.59;124872;1099;101836;-79
2023/10/21 10:30:44;;;;;;;18.05;4.95;;;;;;;28.67;38.38;99613.07;124628;1098;104203;-76
2023/10/21 10:33:22;;;;;;;18.40;4.65;;;;;;;28.72;38.10;99615.52;124630;1099;102494;-76
2023/10/21 10:35:55;;;;;;;22.20;5.67;;;;;;;28.75;38.00;99604.56;124606;1098;104255;-75
2023/10/21 10:38:31;;;;;;;15.43;4.93;;;;;;;28.78;37.42;99609.80;124206;1099;104280;-75
2023/10/21 10:41:07;;;;;;;21.00;4.90;;;;;;;28.81;37.20;99605.13;124681;1099;104329;-75
2023/10/21 10:43:41;;;;;;;19.53;4.90;;;;;;;28.89;36.67;99612.81;124669;1099;101987;-75
2023/10/21 10:46:16;;;;;;;14.30;4.80;;;;;;;28.96;36.50;99616.90;124619;1099;104207;-74
2023/10/21 10:48:48;;;;;;;19.03;4.70;;;;;;;29.03;36.02;99612.02;124511;1099;104363;-75
2023/10/21 10:51:21;;;;;;;15.73;4.53;;;;;;;29.08;35.95;99618.06;124567;1099;101820;-74
2023/10/21 10:54:00;;;;;;;16.43;5.13;;;;;;;29.12;35.69;99616.92;124556;1099;101855;-75
2023/10/21 10:56:43;;;;;;;20.93;5.10;;;;;;;29.16;35.65;99618.50;124534;1098;104290;-73
2023/10/21 10:59:17;;;;;;;14.90;4.50;;;;;;;29.18;35.28;99619.28;124559;1098;104237;-73
2023/10/21 11:02:00;;;;;;;18.37;5.33;;;;;;;29.18;35.05;99616.58;124510;1099;104403;-73
2023/10/21 11:04:33;;;;;;;15.40;4.65;;;;;;;29.20;34.97;99620.13;124169;1099;105434;-74
2023/10/21 11:07:05;;;;;;;15.10;4.80;;;;;;;29.20;34.96;99624.63;124657;1098;104192;-75
2023/10/21 11:09:36;;;;;;;16.50;4.87;;;;;;;29.20;35.16;99627.33;124635;1099;102523;-75
2023/10/21 11:12:09;;;;;;;22.43;5.20;;;;;;;29.24;34.83;99637.02;124726;1099;101925;-76
2023/10/21 11:14:39;;;;;;;;;;;;;;;29.26;34.89;99631.53;124684;1099;104169;-76
2023/10/21 11:17:11;;;;;;;21.67;5.47;;;;;;;29.28;34.59;99629.61;124231;1099;103609;-77
2023/10/21 11:19:44;;;;;;;17.93;5.27;;;;;;;29.29;34.43;99632.22;124803;1099;104211;-77
2023/10/21 11:22:25;;;;;;;19.57;4.67;;;;;;;29.29;34.42;99636.77;124194;1099;104235;-76
2023/10/21 11:24:57;;;;;;;13.43;4.93;;;;;;;29.29;34.37;99634.92;124092;1099;103661;-75
2023/10/21 11:27:29;;;;;;;19.50;5.13;;;;;;;29.28;34.26;99630.50;124184;1099;107019;-76
2023/10/21 11:30:07;;;;;;;17.20;4.90;;;;;;;29.28;34.32;99635.02;124254;1099;101984;-76
2023/10/21 11:32:39;;;;;;;17.90;4.93;;;;;;;29.28;34.11;99635.02;124606;1099;104288;-75